Time;durP1;ratioP1;P1;durP2;ratioP2;P2;SDS_P1;SDS_P2;PMS_P1;PMS_P2;Temp;Humidity;BMP_temperature;BMP_pressure;BME280_temperature;BME280_humidity;BME280_pressure;Samples;Min_cycle;Max_cycle;Signal;HPM_P1;HPM_P2
2022/01/23 00:02:19;;;;;;;2.53;1.20;;;3.70;84.10;;;;;;5090920;28;20024;-75
2022/01/23 00:04:45;;;;;;;2.58;0.80;;;3.60;84.20;;;;;;5093603;28;20038;-74
2022/01/23 00:07:13;;;;;;;2.75;1.25;;;4.70;81.60;;;;;;5093851;28;20106;-74
2022/01/23 00:09:39;;;;;;;3.92;2.17;;;4.40;81.60;;;;;;5093781;28;20111;-73
2022/01/23 00:12:11;;;;;;;4.75;1.65;;;4.10;82.60;;;;;;5093727;28;20053;-74
2022/01/23 00:17:22;;;;;;;5.32;1.77;;;3.60;84.40;;;;;;5093718;28;20069;-74
2022/01/23 00:19:54;;;;;;;5.47;1.83;;;3.80;83.50;;;;;;5093740;28;20026;-73
2022/01/23 00:22:24;;;;;;;5.00;2.55;;;3.80;83.40;;;;;;5093654;28;20035;-73
2022/01/23 00:30:32;;;;;;;5.27;2.40;;;3.60;84.60;;;;;;5093507;28;20070;-74
2022/01/23 00:33:03;;;;;;;4.63;2.05;;;3.50;84.50;;;;;;5093416;28;20274;-74
2022/01/23 00:35:30;;;;;;;5.78;2.60;;;3.40;84.60;;;;;;5093314;28;20028;-74
2022/01/23 00:37:57;;;;;;;8.82;3.33;;;3.10;85.40;;;;;;5093264;28;20504;-74
2022/01/23 00:40:24;;;;;;;5.97;2.50;;;3.10;85.70;;;;;;5093339;28;20023;-74
2022/01/23 00:42:50;;;;;;;5.38;2.40;;;3.10;86.10;;;;;;5075045;28;20525;-75
2022/01/23 00:45:28;;;;;;;7.53;2.83;;;3.10;86.00;;;;;;5093360;28;20046;-74
2022/01/23 00:47:59;;;;;;;5.70;2.22;;;3.20;85.70;;;;;;5074705;28;20020;-74
2022/01/23 00:50:25;;;;;;;4.13;2.28;;;3.10;87.10;;;;;;5093011;28;20047;-74
2022/01/23 00:52:51;;;;;;;4.15;1.90;;;3.00;86.80;;;;;;5092807;28;20446;-75
2022/01/23 00:55:17;;;;;;;4.97;2.00;;;3.10;86.50;;;;;;5092987;28;20052;-74
2022/01/23 00:57:43;;;;;;;5.85;2.13;;;3.10;86.10;;;;;;5092721;28;20088;-74
2022/01/23 01:00:09;;;;;;;7.28;3.78;;;3.10;85.70;;;;;;5092729;28;20024;-74
2022/01/23 01:02:35;;;;;;;8.25;4.20;;;3.10;85.80;;;;;;5092608;28;20012;-74
2022/01/23 01:05:02;;;;;;;8.10;3.85;;;3.20;85.60;;;;;;5092585;28;20051;-73
2022/01/23 01:07:28;;;;;;;9.80;4.25;;;3.10;86.10;;;;;;5092327;28;20016;-75
2022/01/23 01:09:59;;;;;;;6.13;2.63;;;3.10;85.90;;;;;;5092646;28;20034;-74
2022/01/23 01:12:30;;;;;;;9.07;3.10;;;3.10;86.20;;;;;;5092511;28;20027;-74
2022/01/23 01:15:22;;;;;;;6.80;3.88;;;3.10;86.30;;;;;;5092699;28;20020;-73
2022/01/23 01:31:34;;;;;;;5.80;1.90;;;3.30;85.70;;;;;;5092189;28;20312;-74
2022/01/23 01:34:08;;;;;;;4.93;1.88;;;3.40;85.50;;;;;;5092156;28;20432;-73
2022/01/23 01:39:05;;;;;;;3.33;1.70;;;3.70;84.30;;;;;;5092557;28;20470;-74
2022/01/23 01:41:34;;;;;;;5.00;2.65;;;3.70;84.30;;;;;;5092024;28;20054;-74
2022/01/23 01:43:59;;;;;;;6.68;2.58;;;3.70;84.00;;;;;;5091922;28;20032;-74
2022/01/23 01:46:25;;;;;;;3.00;1.17;;;3.60;84.00;;;;;;5092327;28;20032;-74
2022/01/23 01:48:51;;;;;;;3.00;1.23;;;3.70;84.10;;;;;;5092025;28;20055;-74
2022/01/23 01:51:18;;;;;;;3.55;2.10;;;3.80;83.90;;;;;;5092063;28;20021;-75
2022/01/23 01:53:50;;;;;;;3.22;1.40;;;3.90;83.70;;;;;;5091996;28;20039;-74
2022/01/23 01:56:16;;;;;;;4.05;1.58;;;3.80;83.80;;;;;;5092044;28;20056;-73
2022/01/23 02:02:44;;;;;;;5.65;2.30;;;4.10;83.40;;;;;;5092022;28;20035;-74
2022/01/23 02:09:24;;;;;;;6.38;3.65;;;4.10;83.40;;;;;;5092337;28;20070;-74
2022/01/23 02:55:42;;;;;;;7.83;4.83;;;2.80;88.00;;;;;;5095603;28;20402;-74
2022/01/23 02:58:10;;;;;;;10.45;4.43;;;2.80;88.00;;;;;;5095328;28;20258;-73
2022/01/23 03:00:48;;;;;;;7.13;4.38;;;2.50;88.10;;;;;;5076909;28;20039;-73
2022/01/23 03:03:21;;;;;;;8.77;4.38;;;2.60;88.10;;;;;;5095361;28;20103;-73
2022/01/23 03:06:09;;;;;;;9.27;4.20;;;2.50;88.70;;;;;;5094985;28;20035;-74
2022/01/23 03:09:02;;;;;;;7.15;4.30;;;2.50;88.90;;;;;;5094690;28;20039;-73
2022/01/23 03:32:45;;;;;;;10.52;4.57;;;3.00;86.90;;;;;;5094504;28;20036;-74
2022/01/23 03:35:11;;;;;;;9.60;5.82;;;3.10;87.00;;;;;;5094546;28;20135;-74
2022/01/23 03:37:36;;;;;;;13.95;6.82;;;2.70;88.10;;;;;;5094382;28;20085;-74
2022/01/23 03:40:04;;;;;;;9.98;6.28;;;2.60;88.60;;;;;;5094468;28;20028;-75
2022/01/23 03:42:32;;;;;;;12.70;6.65;;;2.90;87.40;;;;;;5076293;28;20020;-74
2022/01/23 03:45:23;;;;;;;10.63;6.25;;;3.00;87.20;;;;;;5094699;28;20032;-73
2022/01/23 03:50:30;;;;;;;9.85;4.93;;;3.20;86.10;;;;;;5094416;28;20082;-74
2022/01/23 03:52:56;;;;;;;10.40;4.85;;;3.40;85.90;;;;;;5093977;28;20434;-74
2022/01/23 03:55:22;;;;;;;9.77;5.25;;;3.50;85.60;;;;;;5094198;28;20382;-74
2022/01/23 03:57:48;;;;;;;12.50;5.05;;;3.50;85.50;;;;;;5094005;28;20020;-74
2022/01/23 04:00:16;;;;;;;12.13;5.35;;;3.40;85.50;;;;;;5092898;28;20031;-75
2022/01/23 04:02:42;;;;;;;12.80;4.47;;;3.30;85.90;;;;;;5066898;28;20127;-75
2022/01/23 04:05:08;;;;;;;9.30;4.35;;;3.20;86.30;;;;;;5085371;28;20032;-75
2022/01/23 04:07:36;;;;;;;9.80;4.53;;;3.70;84.90;;;;;;5085000;28;20055;-75
2022/01/23 04:10:03;;;;;;;11.75;4.95;;;3.70;85.20;;;;;;5086498;28;20107;-75
2022/01/23 04:15:08;;;;;;;9.85;4.95;;;3.70;84.60;;;;;;5086179;28;20035;-75
2022/01/23 04:33:55;;;;;;;8.35;4.50;;;3.30;85.90;;;;;;5088622;28;20085;-75
2022/01/23 05:01:07;;;;;;;10.10;4.90;;;3.10;86.60;;;;;;5084081;28;20124;-75
2022/01/23 05:06:26;;;;;;;10.80;4.85;;;2.80;87.40;;;;;;5085447;28;20054;-74
2022/01/23 05:08:52;;;;;;;11.05;4.43;;;2.80;87.70;;;;;;5085217;28;20020;-75
2022/01/23 05:11:18;;;;;;;12.43;4.18;;;2.80;87.90;;;;;;5085325;28;20428;-75
2022/01/23 05:13:45;;;;;;;9.75;5.35;;;2.70;88.30;;;;;;5084710;28;20107;-74
2022/01/23 05:16:11;;;;;;;10.02;5.35;;;2.70;88.30;;;;;;5084617;28;20024;-75
2022/01/23 05:18:38;;;;;;;8.32;5.15;;;2.70;88.60;;;;;;5084623;28;20027;-75
2022/01/23 05:23:51;;;;;;;11.95;6.88;;;2.70;88.80;;;;;;5052368;28;20058;-75
2022/01/23 05:26:17;;;;;;;11.32;5.93;;;2.80;88.20;;;;;;5066352;28;20042;-75
2022/01/23 05:28:43;;;;;;;12.05;5.60;;;2.90;88.30;;;;;;5083711;28;20105;-75
2022/01/23 05:31:09;;;;;;;10.20;5.63;;;2.60;88.30;;;;;;5066394;28;20082;-76
2022/01/23 05:33:34;;;;;;;9.65;5.38;;;2.60;88.60;;;;;;5083929;28;20551;-75
2022/01/23 05:36:00;;;;;;;7.97;4.75;;;2.50;89.80;;;;;;5084022;28;20028;-75
2022/01/23 05:38:26;;;;;;;8.82;4.25;;;2.30;89.40;;;;;;5085543;28;20024;-75
2022/01/23 05:40:57;;;;;;;13.98;5.38;;;2.20;90.10;;;;;;5086419;28;20024;-75
2022/01/23 05:43:23;;;;;;;11.10;5.60;;;2.10;90.30;;;;;;5086700;28;20030;-75
2022/01/23 05:45:49;;;;;;;10.52;5.32;;;2.00;90.50;;;;;;5087340;28;20028;-75
2022/01/23 05:48:16;;;;;;;11.63;5.53;;;2.00;90.40;;;;;;5086434;28;20560;-76
2022/01/23 05:50:42;;;;;;;10.80;6.20;;;2.00;90.50;;;;;;5085365;28;20020;-76
2022/01/23 05:53:08;;;;;;;13.80;7.10;;;1.90;90.40;;;;;;5084036;28;20533;-75
2022/01/23 05:55:33;;;;;;;9.32;5.75;;;2.00;90.60;;;;;;5083646;28;20032;-76
2022/01/23 05:57:59;;;;;;;12.10;5.53;;;2.00;90.50;;;;;;5083344;28;20111;-75
2022/01/23 06:00:24;;;;;;;9.40;4.80;;;2.10;90.30;;;;;;5083835;28;20082;-75
2022/01/23 06:02:51;;;;;;;9.85;4.72;;;2.20;90.10;;;;;;5083195;28;20035;-75
2022/01/23 06:05:17;;;;;;;8.95;3.60;;;2.10;90.30;;;;;;5084035;28;20032;-75
2022/01/23 06:07:42;;;;;;;8.02;3.53;;;2.20;90.40;;;;;;5084071;28;20600;-75
2022/01/23 06:10:19;;;;;;;9.65;4.25;;;2.30;90.10;;;;;;5066327;28;20016;-76
2022/01/23 06:12:44;;;;;;;18.23;5.13;;;2.40;89.80;;;;;;5084159;28;20088;-75
2022/01/23 06:15:10;;;;;;;8.55;3.80;;;2.50;89.90;;;;;;5084060;28;20588;-75
2022/01/23 06:17:36;;;;;;;7.10;3.38;;;2.30;90.30;;;;;;5083151;28;20430;-75
2022/01/23 06:20:02;;;;;;;5.53;2.78;;;2.30;90.30;;;;;;5084193;28;20039;-76
2022/01/23 06:22:28;;;;;;;6.50;2.55;;;2.50;90.20;;;;;;5084419;28;20032;-75
2022/01/23 06:24:53;;;;;;;10.07;3.20;;;2.40;90.20;;;;;;5084181;28;20036;-75
2022/01/23 06:27:19;;;;;;;6.20;2.50;;;2.40;90.10;;;;;;5084311;28;20553;-75
2022/01/23 06:29:45;;;;;;;6.97;2.75;;;2.50;90.10;;;;;;5083805;28;20059;-75
2022/01/23 06:32:12;;;;;;;9.48;4.43;;;2.40;90.20;;;;;;5084279;28;20050;-76
2022/01/23 06:34:38;;;;;;;10.10;4.95;;;2.30;90.10;;;;;;5084062;28;20028;-75
2022/01/23 06:37:05;;;;;;;7.68;4.03;;;2.40;90.20;;;;;;5083168;28;20024;-75
2022/01/23 06:39:31;;;;;;;7.20;3.60;;;2.30;90.20;;;;;;5084290;28;20047;-75
2022/01/23 06:41:57;;;;;;;6.90;2.55;;;2.40;90.50;;;;;;5082866;28;20127;-75
2022/01/23 06:44:23;;;;;;;4.35;1.85;;;2.30;90.70;;;;;;5082511;28;20119;-76
2022/01/23 06:46:49;;;;;;;4.85;2.15;;;2.20;90.90;;;;;;5085662;28;20119;-75
2022/01/23 06:49:15;;;;;;;4.97;2.22;;;2.20;90.80;;;;;;5087118;28;20077;-76
2022/01/23 06:51:42;;;;;;;5.68;2.72;;;2.10;91.00;;;;;;5087027;28;20032;-75
2022/01/23 06:54:09;;;;;;;6.75;3.67;;;1.90;91.20;;;;;;5087247;28;20027;-75
2022/01/23 06:56:34;;;;;;;6.28;2.72;;;1.90;91.30;;;;;;5087126;28;20089;-75
2022/01/23 06:59:00;;;;;;;7.70;3.90;;;1.90;91.20;;;;;;5087246;28;20047;-75
2022/01/23 07:01:26;;;;;;;6.50;3.55;;;1.80;91.40;;;;;;5068348;28;20591;-75
2022/01/23 07:03:51;;;;;;;7.30;2.90;;;1.80;91.40;;;;;;5086820;28;20028;-76
2022/01/23 07:06:17;;;;;;;6.03;3.25;;;1.80;91.90;;;;;;5088459;28;20024;-75
2022/01/23 07:08:43;;;;;;;8.95;4.40;;;1.70;91.90;;;;;;5089209;28;20115;-75
2022/01/23 07:11:09;;;;;;;7.88;4.25;;;1.60;91.80;;;;;;5090240;28;20016;-76
2022/01/23 07:13:35;;;;;;;8.68;3.97;;;1.70;91.80;;;;;;5090318;28;20536;-75
2022/01/23 07:16:02;;;;;;;7.68;4.03;;;1.70;92.00;;;;;;5072107;28;20056;-75
2022/01/23 07:18:28;;;;;;;11.52;4.47;;;1.60;92.00;;;;;;5090455;28;20478;-75
2022/01/23 07:20:54;;;;;;;9.23;4.35;;;1.70;92.00;;;;;;5090262;28;20107;-75
2022/01/23 07:23:22;;;;;;;12.18;5.20;;;1.80;91.90;;;;;;5090464;28;20574;-75
2022/01/23 07:25:51;;;;;;;10.38;4.63;;;1.90;91.70;;;;;;5088378;28;20028;-74
2022/01/23 07:28:21;;;;;;;8.68;4.85;;;1.80;91.60;;;;;;5090099;28;20024;-75
2022/01/23 07:30:51;;;;;;;10.43;5.40;;;1.80;91.90;;;;;;5089786;28;20135;-75
2022/01/23 07:33:17;;;;;;;10.52;4.85;;;1.80;91.60;;;;;;5088734;28;20075;-75
2022/01/23 07:35:43;;;;;;;8.95;4.88;;;1.80;91.60;;;;;;5090053;28;20027;-75
2022/01/23 07:38:11;;;;;;;9.50;4.97;;;1.90;91.60;;;;;;5090390;28;20020;-75
2022/01/23 07:40:37;;;;;;;8.55;4.07;;;1.90;91.60;;;;;;5090048;28;20123;-76
2022/01/23 07:43:03;;;;;;;8.23;4.45;;;2.00;91.60;;;;;;5088337;28;20035;-75
2022/01/23 07:45:28;;;;;;;7.20;4.30;;;2.00;91.70;;;;;;5088434;28;20039;-75
2022/01/23 07:47:54;;;;;;;8.55;4.00;;;2.20;91.30;;;;;;5089623;28;20024;-75
2022/01/23 07:50:20;;;;;;;9.75;4.25;;;2.30;91.50;;;;;;5088430;28;20028;-75
2022/01/23 07:52:46;;;;;;;8.15;3.70;;;2.30;91.40;;;;;;5089513;28;20024;-76
2022/01/23 07:55:14;;;;;;;5.75;3.45;;;2.30;91.70;;;;;;5089728;28;20024;-76
2022/01/23 07:57:42;;;;;;;6.57;3.75;;;2.40;91.70;;;;;;5089711;28;20486;-75
2022/01/23 08:00:10;;;;;;;7.57;3.90;;;2.40;91.60;;;;;;5087912;28;20559;-75
2022/01/23 08:02:35;;;;;;;6.25;3.33;;;2.40;91.40;;;;;;5089270;28;20028;-75
2022/01/23 08:05:01;;;;;;;8.05;3.15;;;2.40;91.80;;;;;;5089351;28;20425;-75
2022/01/23 08:09:58;;;;;;;7.32;3.20;;;2.40;91.30;;;;;;5088182;28;20051;-75
2022/01/23 08:12:27;;;;;;;8.73;3.55;;;2.60;91.40;;;;;;5089104;28;20032;-76
2022/01/23 08:14:54;;;;;;;6.57;3.70;;;2.60;91.30;;;;;;5088947;28;20028;-75
2022/01/23 08:17:24;;;;;;;9.25;3.38;;;2.50;91.70;;;;;;5088058;28;20032;-75
2022/01/23 08:19:53;;;;;;;7.40;3.40;;;2.40;91.40;;;;;;5088959;28;20052;-75
2022/01/23 08:22:20;;;;;;;6.05;3.55;;;2.50;91.40;;;;;;5088988;28;20462;-76
2022/01/23 08:24:46;;;;;;;6.10;3.20;;;2.50;91.40;;;;;;5088728;28;20040;-75
2022/01/23 08:27:11;;;;;;;5.85;3.38;;;2.60;91.40;;;;;;5089089;28;20417;-75
2022/01/23 08:29:37;;;;;;;6.68;3.65;;;2.60;91.50;;;;;;5088591;28;20517;-75
2022/01/23 08:32:03;;;;;;;11.15;4.40;;;2.70;91.50;;;;;;5088865;28;20062;-76
2022/01/23 08:34:29;;;;;;;8.80;3.90;;;2.70;91.40;;;;;;5088682;28;20062;-76
2022/01/23 08:36:55;;;;;;;7.85;3.65;;;2.70;91.10;;;;;;5088745;28;20028;-76
2022/01/23 08:39:24;;;;;;;7.60;3.55;;;2.60;91.00;;;;;;5088633;28;20031;-76
2022/01/23 08:41:50;;;;;;;7.78;4.18;;;2.70;90.80;;;;;;5088560;28;20023;-75
2022/01/23 08:44:21;;;;;;;7.90;3.40;;;2.70;91.00;;;;;;5088882;28;20035;-75
2022/01/23 08:46:47;;;;;;;12.05;4.35;;;2.80;90.90;;;;;;5088744;28;20039;-75
2022/01/23 08:49:15;;;;;;;6.68;3.25;;;2.90;90.90;;;;;;5088610;28;20099;-75
2022/01/23 08:51:41;;;;;;;7.03;3.97;;;3.10;90.90;;;;;;5088511;28;20065;-75
2022/01/23 08:54:07;;;;;;;7.78;3.33;;;3.20;90.90;;;;;;5088734;28;20046;-76
2022/01/23 08:56:33;;;;;;;7.68;4.07;;;3.30;90.30;;;;;;5070238;28;20651;-75
2022/01/23 08:58:59;;;;;;;8.38;4.25;;;3.30;90.00;;;;;;5088537;28;20025;-76
2022/01/23 09:01:25;;;;;;;7.78;3.53;;;3.30;90.50;;;;;;5088380;28;20024;-76
2022/01/23 09:03:51;;;;;;;6.70;4.03;;;3.30;90.30;;;;;;5088264;28;20027;-75
2022/01/23 09:06:17;;;;;;;7.05;3.92;;;3.20;90.40;;;;;;5087857;28;20531;-75
2022/01/23 09:08:43;;;;;;;6.65;3.67;;;3.00;91.20;;;;;;5088228;28;20024;-75
2022/01/23 09:11:13;;;;;;;6.30;3.13;;;2.90;91.20;;;;;;5087447;28;20048;-76
2022/01/23 09:16:06;;;;;;;10.57;3.92;;;2.90;91.10;;;;;;5088177;28;20488;-75
2022/01/23 09:18:33;;;;;;;7.63;3.17;;;3.10;90.60;;;;;;5088254;28;20024;-75
2022/01/23 09:20:59;;;;;;;6.53;3.03;;;3.10;91.00;;;;;;5087871;28;20466;-75
2022/01/23 09:23:25;;;;;;;6.13;2.95;;;3.00;90.90;;;;;;5087832;28;20035;-75
2022/01/23 09:25:51;;;;;;;6.07;2.92;;;3.00;91.20;;;;;;5073894;28;20071;-75
2022/01/23 09:28:19;;;;;;;6.25;2.78;;;3.00;90.90;;;;;;5049998;28;20079;-75
2022/01/23 09:30:49;;;;;;;5.18;2.67;;;3.10;90.80;;;;;;5079911;28;20374;-75
2022/01/23 09:33:16;;;;;;;5.07;2.90;;;3.10;90.40;;;;;;5087967;28;20070;-75
2022/01/23 09:35:42;;;;;;;5.05;2.40;;;3.20;90.40;;;;;;5086857;28;20035;-75
2022/01/23 09:38:07;;;;;;;6.95;2.95;;;3.20;90.40;;;;;;5088157;28;20024;-75
2022/01/23 09:40:34;;;;;;;7.47;3.20;;;3.30;90.00;;;;;;5085926;28;20115;-76
2022/01/23 09:43:06;;;;;;;6.45;3.65;;;3.40;89.90;;;;;;5085646;28;20084;-75
2022/01/23 09:45:33;;;;;;;6.15;2.53;;;3.40;89.70;;;;;;5087347;28;20536;-75
2022/01/23 09:48:02;;;;;;;5.78;2.65;;;3.40;90.00;;;;;;5087553;28;20035;-76
2022/01/23 09:50:30;;;;;;;6.05;2.70;;;3.30;90.10;;;;;;5087486;28;20028;-76
2022/01/23 09:52:56;;;;;;;7.95;4.18;;;3.20;90.30;;;;;;5086366;28;20031;-76
2022/01/23 09:55:25;;;;;;;10.38;5.43;;;3.00;91.00;;;;;;5086761;28;20020;-76
2022/01/23 09:57:51;;;;;;;9.02;4.80;;;2.90;91.50;;;;;;5087570;28;20020;-76
2022/01/23 10:00:19;;;;;;;8.43;4.78;;;2.70;91.70;;;;;;5087253;28;20456;-75
2022/01/23 10:02:50;;;;;;;6.22;4.18;;;2.50;92.00;;;;;;5087369;28;20050;-76
2022/01/23 10:05:16;;;;;;;6.97;3.40;;;2.60;92.30;;;;;;5087109;28;20055;-75
2022/01/23 10:07:43;;;;;;;8.43;3.22;;;2.60;92.50;;;;;;5087212;28;20082;-75
2022/01/23 10:10:19;;;;;;;10.25;2.92;;;2.60;92.70;;;;;;5087542;28;20027;-75
2022/01/23 10:12:55;;;;;;;8.00;4.03;;;2.70;92.30;;;;;;5086922;28;20024;-76
2022/01/23 10:15:22;;;;;;;9.52;4.38;;;2.80;92.00;;;;;;5087188;28;20025;-75
2022/01/23 10:17:49;;;;;;;9.52;4.53;;;2.90;91.80;;;;;;5087304;28;20024;-76
2022/01/23 10:20:15;;;;;;;7.95;4.13;;;2.90;91.80;;;;;;5087384;28;20449;-76
2022/01/23 10:22:44;;;;;;;10.73;5.05;;;2.90;91.90;;;;;;5087080;28;20016;-77
2022/01/23 10:25:13;;;;;;;14.00;6.15;;;2.80;91.80;;;;;;5087471;28;20032;-75
2022/01/23 10:28:05;;;;;;;11.07;6.13;;;2.80;92.00;;;;;;5087360;28;20112;-75
2022/01/23 10:30:40;;;;;;;10.82;5.63;;;2.80;92.10;;;;;;5085741;28;20486;-75
2022/01/23 10:33:11;;;;;;;;;;;2.80;92.10;;;;;;5087877;28;20058;-75
2022/01/23 10:36:07;;;;;;;9.57;4.68;;;3.00;92.10;;;;;;5087467;28;20397;-75
2022/01/23 10:38:34;;;;;;;8.13;4.30;;;3.30;91.30;;;;;;5087342;28;20059;-76
2022/01/23 10:49:04;;;;;;;9.20;4.97;;;3.90;90.50;;;;;;5090338;28;20365;-75
2022/01/23 10:51:35;;;;;;;8.55;4.65;;;4.10;90.70;;;;;;5090033;28;20039;-76
2022/01/23 10:54:04;;;;;;;6.32;3.65;;;4.30;90.80;;;;;;5090047;28;20023;-75
2022/01/23 10:56:53;;;;;;;12.30;5.55;;;4.40;90.50;;;;;;5091040;28;20024;-76
2022/01/23 10:59:18;;;;;;;7.07;4.10;;;4.50;89.90;;;;;;5090934;28;20024;-75
2022/01/23 11:01:59;;;;;;;8.98;6.43;;;4.60;89.20;;;;;;5089887;28;20031;-75
2022/01/23 11:04:25;;;;;;;9.57;6.78;;;4.70;88.30;;;;;;5072106;28;20493;-75
2022/01/23 11:07:00;;;;;;;12.60;9.32;;;4.80;88.50;;;;;;5090497;28;20038;-76
2022/01/23 11:09:29;;;;;;;7.32;5.32;;;5.00;88.00;;;;;;5090834;28;20659;-75
2022/01/23 11:12:02;;;;;;;8.18;3.88;;;4.90;87.60;;;;;;5090493;28;20034;-75
2022/01/23 11:17:22;;;;;;;9.88;3.13;;;5.30;88.80;;;;;;5090728;28;20058;-76
2022/01/23 11:19:50;;;;;;;6.38;3.10;;;5.30;87.60;;;;;;5090572;28;20028;-76
2022/01/23 11:22:21;;;;;;;8.63;3.90;;;5.30;87.80;;;;;;5090646;28;20027;-76
2022/01/23 11:24:48;;;;;;;9.27;4.28;;;5.40;88.00;;;;;;5090225;28;20039;-75
2022/01/23 11:27:23;;;;;;;6.97;3.90;;;5.60;87.20;;;;;;5090645;28;20121;-76
2022/01/23 11:30:15;;;;;;;;;;;5.50;87.50;;;;;;5090726;28;20055;-76
2022/01/23 11:32:42;;;;;;;8.57;4.07;;;5.60;87.10;;;;;;5084968;28;19904;-76
2022/01/23 11:35:13;;;;;;;7.03;4.00;;;5.70;87.70;;;;;;5090415;28;20126;-75
2022/01/23 11:37:47;;;;;;;6.45;3.75;;;5.80;87.80;;;;;;5090405;28;21051;-75
2022/01/23 11:53:55;;;;;;;7.63;4.80;;;6.60;86.40;;;;;;5088723;28;20319;-75
2022/01/23 11:56:27;;;;;;;15.00;4.35;;;6.70;85.90;;;;;;5088905;28;20028;-75
2022/01/23 11:59:15;;;;;;;8.00;3.75;;;6.80;85.40;;;;;;5089493;28;20036;-75
2022/01/23 12:01:42;;;;;;;14.48;4.55;;;6.90;85.50;;;;;;5089437;28;20031;-75
2022/01/23 12:04:09;;;;;;;8.50;4.10;;;7.00;85.50;;;;;;5089693;28;20509;-76
2022/01/23 12:06:47;;;;;;;9.45;4.57;;;7.10;85.30;;;;;;5089625;28;20027;-75
2022/01/23 12:09:19;;;;;;;6.88;4.07;;;7.40;85.70;;;;;;5089671;28;20034;-75
2022/01/23 12:12:08;;;;;;;11.98;5.53;;;7.50;84.20;;;;;;5089561;28;20433;-76
2022/01/23 12:17:09;;;;;;;10.63;4.40;;;7.30;83.90;;;;;;5089597;28;20207;-76
2022/01/23 12:19:55;;;;;;;8.40;4.78;;;7.50;84.20;;;;;;5089597;28;20020;-75
2022/01/23 12:22:33;;;;;;;13.45;5.78;;;7.60;84.70;;;;;;5071233;28;20020;-76
2022/01/23 12:25:08;;;;;;;8.48;5.13;;;7.80;83.80;;;;;;5089152;28;20322;-75
2022/01/23 12:27:34;;;;;;;9.77;4.55;;;7.80;83.10;;;;;;5089302;28;20467;-76
2022/01/23 12:30:31;;;;;;;7.95;4.60;;;7.80;83.60;;;;;;5088985;28;20048;-75
2022/01/23 12:33:26;;;;;;;10.07;4.25;;;7.80;83.00;;;;;;5089109;28;20055;-76
2022/01/23 12:35:55;;;;;;;5.90;3.70;;;7.90;82.80;;;;;;5089287;28;20340;-76
2022/01/23 12:38:38;;;;;;;7.68;3.35;;;7.90;83.00;;;;;;5088824;28;20024;-75
2022/01/23 12:41:34;;;;;;;8.73;3.67;;;8.00;83.10;;;;;;5089144;28;20445;-76
2022/01/23 12:44:20;;;;;;;11.00;3.70;;;7.90;82.40;;;;;;5071320;28;20522;-76
2022/01/23 12:46:54;;;;;;;6.15;2.90;;;7.90;82.40;;;;;;5089148;28;20031;-77
2022/01/23 12:49:26;;;;;;;9.43;4.00;;;7.80;82.10;;;;;;5088842;28;20058;-75
2022/01/23 12:51:53;;;;;;;4.93;2.72;;;7.90;81.80;;;;;;5070525;28;20031;-76
2022/01/23 12:54:26;;;;;;;5.10;1.98;;;8.10;81.70;;;;;;5088775;28;20065;-75
2022/01/23 12:56:53;;;;;;;8.80;2.75;;;8.20;80.40;;;;;;5087887;28;20035;-76
2022/01/23 12:59:30;;;;;;;4.25;2.15;;;8.40;81.10;;;;;;5088841;28;20036;-75
2022/01/23 13:02:01;;;;;;;4.80;1.70;;;8.40;80.60;;;;;;5088518;28;20031;-76
2022/01/23 13:04:35;;;;;;;7.07;3.67;;;8.40;80.70;;;;;;5088012;28;20170;-76
2022/01/23 13:07:25;;;;;;;14.73;4.68;;;8.30;80.40;;;;;;5088216;28;20035;-75
2022/01/23 13:10:04;;;;;;;12.10;5.28;;;8.30;80.70;;;;;;5088132;28;20099;-75
2022/01/23 13:31:53;;;;;;;5.68;2.35;;;8.60;80.20;;;;;;5086936;28;20509;-76
2022/01/23 13:34:26;;;;;;;11.07;2.95;;;8.60;80.20;;;;;;5087063;28;20023;-75
2022/01/23 13:37:07;;;;;;;6.57;2.72;;;8.80;79.30;;;;;;5087954;28;20020;-76
2022/01/23 13:39:44;;;;;;;5.78;3.10;;;8.60;79.60;;;;;;5069704;28;20047;-76
2022/01/23 13:53:37;;;;;;;7.20;3.40;;;8.90;79.60;;;;;;5087889;28;20089;-76
2022/01/23 13:59:48;;;;;;;7.35;4.22;;;8.60;80.10;;;;;;5087644;28;20106;-75
2022/01/23 14:02:16;;;;;;;7.75;3.75;;;8.60;80.70;;;;;;5086879;28;20086;-76
2022/01/23 14:04:47;;;;;;;7.10;3.85;;;8.50;80.70;;;;;;5087469;28;20035;-76
2022/01/23 14:07:18;;;;;;;10.73;5.35;;;8.60;81.10;;;;;;5087690;28;20024;-76
2022/01/23 14:09:45;;;;;;;8.18;4.47;;;8.60;80.30;;;;;;5087425;28;20039;-76
2022/01/23 14:12:14;;;;;;;7.88;3.92;;;8.50;80.50;;;;;;5087400;28;20055;-75
2022/01/23 14:15:08;;;;;;;11.93;6.65;;;8.50;81.20;;;;;;5087836;28;20028;-76
2022/01/23 14:17:39;;;;;;;11.60;4.90;;;8.60;81.20;;;;;;5091665;28;20124;-75
2022/01/23 14:20:16;;;;;;;9.98;5.07;;;8.60;80.60;;;;;;5090627;28;20028;-75
2022/01/23 14:22:47;;;;;;;6.93;4.20;;;8.60;81.10;;;;;;5091452;28;20028;-76
2022/01/23 14:25:18;;;;;;;9.55;4.97;;;8.60;81.10;;;;;;5091062;28;20036;-76
2022/01/23 14:27:47;;;;;;;17.35;5.75;;;8.50;80.90;;;;;;5091607;28;20028;-76
2022/01/23 14:30:20;;;;;;;9.40;5.20;;;8.50;81.20;;;;;;5091127;28;20431;-75
2022/01/23 14:32:50;;;;;;;10.90;5.00;;;8.40;81.30;;;;;;5091334;28;20032;-76
2022/01/23 14:35:26;;;;;;;8.18;4.57;;;8.40;81.30;;;;;;5091447;28;20085;-76
2022/01/23 14:37:53;;;;;;;9.23;4.85;;;8.20;81.10;;;;;;5091206;28;20028;-76
2022/01/23 14:40:27;;;;;;;13.40;6.35;;;8.20;81.20;;;;;;5091573;28;20092;-76
2022/01/23 14:43:10;;;;;;;13.63;5.72;;;8.30;82.00;;;;;;5091380;28;20103;-76
2022/01/23 14:45:40;;;;;;;11.23;6.10;;;8.20;81.20;;;;;;5091164;28;20067;-76
2022/01/23 14:48:08;;;;;;;13.30;6.78;;;8.20;81.40;;;;;;5091216;28;20020;-76
2022/01/23 14:50:39;;;;;;;13.80;7.32;;;8.10;82.20;;;;;;5091011;28;20050;-75
2022/01/23 14:53:13;;;;;;;9.82;5.57;;;8.10;81.50;;;;;;5090919;28;20020;-76
2022/01/23 14:55:42;;;;;;;12.05;5.97;;;8.00;81.40;;;;;;5090012;28;20510;-76
2022/01/23 14:58:13;;;;;;;9.25;5.72;;;8.00;82.10;;;;;;5090895;28;20020;-76
2022/01/23 15:00:40;;;;;;;10.75;6.07;;;7.90;82.00;;;;;;5091003;28;20096;-75
2022/01/23 15:03:07;;;;;;;12.48;6.97;;;7.90;82.30;;;;;;5090877;28;20031;-76
2022/01/23 15:05:35;;;;;;;14.35;7.63;;;7.90;82.80;;;;;;5091114;28;20115;-76
2022/01/23 15:08:05;;;;;;;15.82;7.43;;;7.70;82.70;;;;;;5090584;28;20024;-77
2022/01/23 15:10:31;;;;;;;13.85;6.72;;;7.80;82.60;;;;;;5090515;28;20081;-75
2022/01/23 15:12:58;;;;;;;15.20;8.20;;;7.70;82.60;;;;;;5090387;28;20028;-75
2022/01/23 15:15:25;;;;;;;14.90;7.18;;;7.70;83.30;;;;;;5090761;28;20031;-76
2022/01/23 15:17:50;;;;;;;22.80;11.30;;;7.60;83.50;;;;;;5090252;28;20032;-76
2022/01/23 15:20:17;;;;;;;15.38;8.93;;;7.50;83.90;;;;;;5090500;28;20024;-76
2022/01/23 15:22:44;;;;;;;16.50;8.93;;;7.50;84.10;;;;;;5090043;28;20024;-75
2022/01/23 15:25:11;;;;;;;14.88;9.10;;;7.40;84.80;;;;;;5089886;28;20039;-76
2022/01/23 15:27:37;;;;;;;16.30;9.60;;;7.40;84.40;;;;;;5086644;28;20130;-76
2022/01/23 15:30:05;;;;;;;19.13;10.13;;;7.20;84.60;;;;;;5086064;28;20134;-76
2022/01/23 15:32:31;;;;;;;16.98;9.65;;;7.10;84.80;;;;;;5087176;28;20032;-76
2022/01/23 15:34:57;;;;;;;19.85;11.10;;;7.00;85.20;;;;;;5089962;28;20051;-76
2022/01/23 15:37:22;;;;;;;28.48;15.50;;;6.80;85.70;;;;;;5089276;28;20101;-76
2022/01/23 15:39:50;;;;;;;25.52;13.32;;;6.80;86.10;;;;;;5090040;28;20036;-75
2022/01/23 15:42:16;;;;;;;20.73;10.30;;;6.70;86.20;;;;;;5089998;28;20024;-76
2022/01/23 15:44:42;;;;;;;21.63;10.65;;;6.60;86.50;;;;;;5089746;28;20032;-75
2022/01/23 15:47:07;;;;;;;21.27;10.65;;;6.60;86.70;;;;;;5090002;28;20340;-76
2022/01/23 15:49:33;;;;;;;19.27;10.57;;;6.70;86.60;;;;;;5089924;28;20038;-77
2022/01/23 15:51:59;;;;;;;23.90;10.95;;;6.60;87.00;;;;;;5089619;28;20028;-75
2022/01/23 15:54:25;;;;;;;22.38;12.30;;;6.60;86.90;;;;;;5088646;28;20094;-75
2022/01/23 15:56:52;;;;;;;20.48;10.48;;;6.50;86.60;;;;;;5089627;28;20348;-75
2022/01/23 15:59:19;;;;;;;20.67;11.35;;;6.50;86.60;;;;;;5089713;28;20931;-75
2022/01/23 16:01:49;;;;;;;22.55;11.32;;;6.50;87.40;;;;;;5089593;28;20028;-75
2022/01/23 16:04:19;;;;;;;17.52;9.48;;;6.50;87.80;;;;;;5089339;28;20032;-75
2022/01/23 16:06:45;;;;;;;20.85;10.95;;;6.40;86.70;;;;;;5089192;28;20059;-75
2022/01/23 16:09:11;;;;;;;25.65;12.00;;;6.40;87.10;;;;;;5089511;28;20038;-77
2022/01/23 16:11:36;;;;;;;14.90;8.05;;;6.30;87.90;;;;;;5087989;28;20039;-75
2022/01/23 16:14:03;;;;;;;14.05;6.88;;;6.20;86.20;;;;;;5089110;28;20470;-76
2022/01/23 16:16:29;;;;;;;18.08;9.70;;;6.10;85.60;;;;;;5089509;28;20099;-76
2022/01/23 16:18:56;;;;;;;19.20;10.55;;;6.20;87.80;;;;;;5089123;28;20024;-76
2022/01/23 16:21:23;;;;;;;19.40;10.85;;;6.10;88.70;;;;;;5089324;28;20502;-76
2022/01/23 16:23:49;;;;;;;21.02;10.52;;;6.00;88.80;;;;;;5089098;28;20410;-75
2022/01/23 16:26:16;;;;;;;21.95;11.52;;;6.00;88.90;;;;;;5089145;28;20115;-76
2022/01/23 16:28:43;;;;;;;22.85;11.38;;;6.00;89.30;;;;;;5089014;28;20127;-76
2022/01/23 16:31:09;;;;;;;19.77;11.52;;;6.00;88.80;;;;;;5088975;28;20094;-76
2022/01/23 16:33:36;;;;;;;13.93;6.20;;;6.00;87.50;;;;;;5089104;28;20028;-76
2022/01/23 16:36:03;;;;;;;11.48;5.35;;;5.70;86.30;;;;;;5089089;28;20538;-77
2022/01/23 16:38:28;;;;;;;12.95;6.18;;;5.50;86.20;;;;;;5088403;28;20081;-76
2022/01/23 16:40:55;;;;;;;13.32;6.80;;;5.40;87.00;;;;;;5088860;28;20021;-77